createdAt,value
2018-03-22T00:02:09.997Z,30.57
2018-03-22T00:04:38.248Z,21.10
2018-03-22T00:07:05.728Z,21.53
2018-03-22T00:09:34.016Z,28.00
2018-03-22T00:12:02.280Z,22.90
2018-03-22T00:14:30.532Z,26.97
2018-03-22T00:16:58.064Z,25.63
2018-03-22T00:19:25.570Z,20.53
2018-03-22T00:21:53.832Z,25.67
2018-03-22T00:24:21.333Z,24.00
2018-03-22T00:26:48.835Z,22.67
2018-03-22T00:29:16.364Z,20.93
2018-03-22T00:31:43.868Z,23.67
2018-03-22T00:34:12.113Z,23.63
2018-03-22T00:36:39.612Z,24.27
2018-03-22T00:39:07.857Z,20.07
2018-03-22T00:41:35.359Z,20.50
2018-03-22T00:44:02.850Z,22.10
2018-03-22T00:46:30.329Z,24.73
2018-03-22T00:48:57.822Z,17.97
2018-03-22T00:51:25.300Z,20.53
2018-03-22T00:53:53.124Z,20.57
2018-03-22T00:56:21.368Z,21.67
2018-03-22T00:58:48.848Z,18.63
2018-03-22T01:01:17.111Z,18.57
2018-03-22T01:03:45.356Z,21.70
2018-03-22T01:06:12.872Z,18.17
2018-03-22T01:08:40.347Z,19.33
2018-03-22T01:11:07.819Z,15.83
2018-03-22T01:13:35.312Z,20.20
2018-03-22T01:16:02.816Z,17.10
2018-03-22T01:18:30.322Z,16.93
2018-03-22T01:20:57.808Z,19.83
2018-03-22T01:23:26.052Z,22.17
2018-03-22T01:25:53.557Z,20.43
2018-03-22T01:28:21.036Z,30.77
2018-03-22T01:30:48.556Z,24.30
2018-03-22T01:33:16.032Z,20.90
2018-03-22T01:35:43.531Z,23.07
2018-03-22T01:38:11.037Z,21.43
2018-03-22T01:40:38.512Z,25.57
2018-03-22T01:43:06.003Z,26.43
2018-03-22T01:45:33.476Z,19.53
2018-03-22T01:48:01.716Z,19.10
2018-03-22T01:50:29.216Z,23.07
2018-03-22T01:53:09.371Z,26.23
2018-03-22T01:55:37.660Z,26.50
2018-03-22T01:58:05.169Z,24.07
2018-03-22T02:00:32.640Z,21.40
2018-03-22T02:03:00.896Z,24.00
2018-03-22T02:05:28.374Z,23.57
2018-03-22T02:07:56.633Z,24.37
2018-03-22T02:10:24.107Z,24.93
2018-03-22T02:12:52.358Z,22.27
2018-03-22T02:15:19.838Z,29.50
2018-03-22T02:17:48.099Z,22.33
2018-03-22T02:20:16.350Z,22.53
2018-03-22T02:22:43.847Z,29.03
2018-03-22T02:25:12.087Z,21.47
2018-03-22T02:27:39.578Z,25.77
2018-03-22T02:30:07.055Z,26.47
2018-03-22T02:32:34.556Z,25.60
2018-03-22T02:35:02.026Z,24.03
2018-03-22T02:37:29.515Z,25.17
2018-03-22T02:39:57.031Z,27.20
2018-03-22T02:42:25.276Z,25.90
2018-03-22T02:44:52.774Z,24.83
2018-03-22T02:47:21.019Z,29.33
2018-03-22T02:49:48.521Z,26.93
2018-03-22T02:52:16.799Z,22.67
2018-03-22T02:54:44.316Z,23.03
2018-03-22T02:57:11.788Z,26.13
2018-03-22T02:59:39.286Z,27.80
2018-03-22T03:02:06.773Z,25.73
2018-03-22T03:04:34.260Z,28.17
2018-03-22T03:07:01.740Z,24.43
2018-03-22T03:09:29.231Z,26.53
2018-03-22T03:11:56.703Z,29.93
2018-03-22T03:14:24.191Z,24.63
2018-03-22T03:16:52.431Z,28.13
2018-03-22T03:19:19.932Z,24.10
2018-03-22T03:21:48.168Z,26.37
2018-03-22T03:24:15.659Z,26.40
2018-03-22T03:26:43.919Z,26.60
2018-03-22T03:29:11.391Z,26.50
2018-03-22T03:31:39.656Z,30.63
2018-03-22T03:34:07.899Z,24.80
2018-03-22T03:36:35.397Z,28.37
2018-03-22T03:39:03.639Z,26.73
2018-03-22T03:41:31.587Z,23.60
2018-03-22T03:43:59.040Z,23.73
2018-03-22T03:46:26.527Z,27.60
2018-03-22T03:48:53.998Z,26.57
2018-03-22T03:51:22.264Z,27.40
2018-03-22T03:53:50.583Z,26.50
2018-03-22T03:56:18.096Z,24.83
2018-03-22T03:58:46.343Z,29.23
2018-03-22T04:01:13.847Z,32.07
2018-03-22T04:03:41.326Z,31.70
2018-03-22T04:06:08.819Z,24.27
2018-03-22T04:08:36.291Z,29.23
2018-03-22T04:11:03.768Z,25.10
2018-03-22T04:13:32.033Z,28.37
2018-03-22T04:16:00.279Z,26.50
2018-03-22T04:18:27.779Z,25.20
2018-03-22T04:20:55.264Z,25.07
2018-03-22T04:23:22.771Z,25.10
2018-03-22T04:25:51.015Z,23.03
2018-03-22T04:28:18.502Z,24.93
2018-03-22T04:30:46.747Z,25.03
2018-03-22T04:33:14.240Z,24.13
2018-03-22T04:35:42.482Z,23.50
2018-03-22T04:38:09.975Z,27.00
2018-03-22T04:40:38.224Z,28.00
2018-03-22T04:43:05.716Z,22.00
2018-03-22T04:45:33.188Z,24.07
2018-03-22T04:48:00.733Z,26.07
2018-03-22T04:50:28.207Z,24.00
2018-03-22T04:52:55.758Z,25.37
2018-03-22T04:55:23.280Z,27.80
2018-03-22T04:57:51.525Z,24.93
2018-03-22T05:00:19.015Z,28.73
2018-03-22T05:02:47.255Z,24.83
2018-03-22T05:05:14.746Z,26.80
2018-03-22T05:07:42.995Z,27.47
2018-03-22T05:10:10.492Z,24.20
2018-03-22T05:12:37.963Z,22.50
2018-03-22T05:15:05.456Z,27.23
2018-03-22T05:17:33.691Z,28.43
2018-03-22T05:20:01.182Z,24.37
2018-03-22T05:22:28.691Z,25.93
2018-03-22T05:24:56.187Z,25.03
2018-03-22T05:27:23.663Z,27.83
2018-03-22T05:29:51.154Z,27.60
2018-03-22T05:32:18.627Z,27.87
2018-03-22T05:34:46.132Z,24.40
2018-03-22T05:37:13.611Z,28.13
2018-03-22T05:39:41.850Z,27.87
2018-03-22T05:42:09.347Z,27.27
2018-03-22T05:44:37.586Z,30.30
2018-03-22T05:47:05.080Z,31.83
2018-03-22T05:49:32.558Z,31.60
2018-03-22T05:52:00.914Z,29.80
2018-03-22T05:54:28.497Z,31.33
2018-03-22T05:56:55.995Z,34.27
2018-03-22T05:59:23.506Z,33.33
2018-03-22T06:01:51.016Z,35.03
2018-03-22T06:04:18.490Z,32.53
2018-03-22T06:06:46.756Z,30.43
2018-03-22T06:09:14.250Z,30.40
2018-03-22T06:11:41.743Z,34.87
2018-03-22T06:14:09.227Z,31.90
2018-03-22T06:16:37.467Z,38.40
2018-03-22T06:19:04.964Z,36.83
2018-03-22T06:21:33.220Z,34.40
2018-03-22T06:24:00.736Z,36.10
2018-03-22T06:26:28.210Z,36.03
2018-03-22T06:28:55.706Z,32.60
2018-03-22T06:31:23.951Z,37.13
2018-03-22T06:33:51.446Z,34.03
2018-03-22T06:36:18.926Z,39.13
2018-03-22T06:38:46.416Z,38.70
2018-03-22T06:41:13.900Z,43.53
2018-03-22T06:43:42.166Z,41.87
2018-03-22T06:46:10.412Z,43.33
2018-03-22T06:48:37.919Z,40.03
2018-03-22T06:51:05.403Z,43.77
2018-03-22T06:53:32.898Z,39.40
2018-03-22T06:56:00.371Z,44.27
2018-03-22T06:58:28.630Z,48.93
2018-03-22T07:00:56.107Z,47.87
2018-03-22T07:03:24.388Z,39.97
2018-03-22T07:05:52.646Z,40.23
2018-03-22T07:08:20.887Z,32.87
2018-03-22T07:10:48.383Z,37.03
2018-03-22T07:13:15.874Z,43.50
2018-03-22T07:15:43.444Z,38.53
2018-03-22T07:18:10.927Z,39.10
2018-03-22T07:20:38.420Z,37.93
2018-03-22T07:23:06.005Z,33.97
2018-03-22T07:25:34.064Z,43.43
2018-03-22T07:28:01.543Z,41.00
2018-03-22T07:30:29.043Z,40.20
2018-03-22T07:32:56.520Z,37.30
2018-03-22T07:35:24.011Z,38.80
2018-03-22T07:37:51.487Z,36.43
2018-03-22T07:40:18.990Z,37.53
2018-03-22T07:42:52.087Z,33.23
2018-03-22T07:45:19.583Z,38.83
2018-03-22T07:47:47.079Z,36.37
2018-03-22T07:50:15.327Z,29.33
2018-03-22T07:52:42.862Z,28.10
2018-03-22T07:55:10.319Z,34.17
2018-03-22T07:57:37.811Z,35.23
2018-03-22T08:00:06.055Z,34.40
2018-03-22T08:02:33.551Z,31.30
2018-03-22T08:05:01.791Z,30.77
2018-03-22T08:07:29.295Z,25.30
2018-03-22T08:09:56.775Z,28.40
2018-03-22T08:12:24.315Z,28.80
2018-03-22T08:14:52.535Z,22.03
2018-03-22T08:17:20.027Z,24.50
2018-03-22T08:19:48.263Z,23.03
2018-03-22T08:22:16.199Z,24.33
2018-03-22T08:24:43.683Z,23.00
2018-03-22T08:27:11.172Z,20.00
2018-03-22T08:29:39.431Z,20.70
2018-03-22T08:32:06.931Z,22.80
2018-03-22T08:34:34.427Z,23.07
2018-03-22T08:37:01.918Z,23.30
2018-03-22T08:39:30.179Z,21.80
2018-03-22T08:41:57.651Z,22.50
2018-03-22T08:44:25.902Z,20.77
2018-03-22T08:46:53.383Z,20.70
2018-03-22T08:49:20.883Z,19.33
2018-03-22T08:51:48.363Z,21.93
2018-03-22T08:54:15.855Z,19.03
2018-03-22T08:56:44.095Z,20.83
2018-03-22T08:59:11.587Z,21.40
2018-03-22T09:01:39.826Z,20.27
2018-03-22T09:04:07.327Z,17.43
2018-03-22T09:06:34.803Z,17.90
2018-03-22T09:09:02.270Z,19.83
2018-03-22T09:11:29.775Z,17.53
2018-03-22T09:13:58.016Z,18.53
2018-03-22T09:16:25.504Z,18.17
2018-03-22T09:18:53.743Z,16.27
2018-03-22T09:21:21.239Z,17.00
2018-03-22T09:23:49.474Z,16.73
2018-03-22T09:26:16.967Z,17.70
2018-03-22T09:28:45.200Z,15.10
2018-03-22T09:31:12.690Z,15.07
2018-03-22T09:33:40.169Z,17.00
2018-03-22T09:36:07.660Z,17.93
2018-03-22T09:38:35.182Z,17.00
2018-03-22T09:41:02.659Z,20.43
2018-03-22T09:43:30.132Z,17.10
2018-03-22T09:45:58.400Z,20.07
2018-03-22T09:48:26.640Z,17.23
2018-03-22T09:50:54.138Z,15.47
2018-03-22T09:53:22.392Z,14.57
2018-03-22T09:55:49.883Z,20.30
2018-03-22T09:58:18.126Z,14.17
2018-03-22T10:00:45.640Z,17.77
2018-03-22T10:03:13.147Z,13.50
2018-03-22T10:05:40.646Z,17.77
2018-03-22T10:08:08.132Z,18.00
2018-03-22T10:10:35.645Z,18.00
2018-03-22T10:13:03.149Z,16.53
2018-03-22T10:15:30.636Z,19.27
2018-03-22T10:17:58.885Z,16.30
2018-03-22T10:20:26.380Z,18.73
2018-03-22T10:22:54.652Z,18.93
2018-03-22T10:25:22.171Z,17.47
2018-03-22T10:27:49.647Z,18.70
2018-03-22T10:30:18.620Z,19.20
2018-03-22T10:32:46.115Z,17.07
2018-03-22T10:35:14.356Z,17.93
2018-03-22T10:37:41.848Z,19.17
2018-03-22T10:40:10.104Z,20.13
2018-03-22T10:42:37.596Z,17.77
2018-03-22T10:45:05.071Z,18.60
2018-03-22T10:47:32.559Z,17.40
2018-03-22T10:50:00.040Z,15.33
2018-03-22T10:52:28.320Z,15.33
2018-03-22T10:54:56.559Z,14.83
2018-03-22T10:57:24.080Z,15.37
2018-03-22T10:59:51.551Z,14.90
2018-03-22T11:02:24.682Z,12.20
2018-03-22T11:04:52.915Z,16.50
2018-03-22T11:07:20.403Z,14.57
2018-03-22T11:09:47.875Z,13.73
2018-03-22T11:12:16.144Z,13.43
2018-03-22T11:14:44.383Z,12.80
2018-03-22T11:17:11.860Z,13.87
2018-03-22T11:19:39.347Z,13.10
2018-03-22T11:22:07.579Z,15.07
2018-03-22T11:24:35.067Z,11.57
2018-03-22T11:27:02.532Z,12.27
2018-03-22T11:29:30.156Z,13.00
2018-03-22T11:31:57.658Z,12.90
2018-03-22T11:34:25.346Z,13.33
2018-03-22T11:36:53.582Z,11.93
2018-03-22T11:39:21.204Z,11.43
2018-03-22T11:41:48.774Z,12.27
2018-03-22T11:44:17.093Z,12.53
2018-03-22T11:46:44.638Z,9.57
2018-03-22T11:49:12.191Z,11.53
2018-03-22T11:51:40.508Z,9.97
2018-03-22T11:54:08.074Z,11.10
2018-03-22T11:56:37.390Z,9.63
2018-03-22T11:59:04.934Z,10.93
2018-03-22T12:01:32.575Z,10.83
2018-03-22T12:04:00.189Z,13.33
2018-03-22T12:06:28.047Z,11.23
2018-03-22T12:08:56.379Z,10.37
2018-03-22T12:11:23.887Z,11.50
2018-03-22T12:13:51.461Z,10.67
2018-03-22T12:16:18.947Z,10.33
2018-03-22T12:18:46.489Z,10.40
2018-03-22T12:21:14.047Z,10.67
2018-03-22T12:23:41.600Z,10.60
2018-03-22T12:26:09.236Z,10.57
2018-03-22T12:28:36.843Z,9.47
2018-03-22T12:31:04.473Z,10.50
2018-03-22T12:33:32.846Z,11.87
2018-03-22T12:36:00.471Z,10.07
2018-03-22T12:38:28.743Z,11.50
2018-03-22T12:40:57.039Z,13.17
2018-03-22T12:43:25.109Z,11.33
2018-03-22T12:45:52.687Z,10.33
2018-03-22T12:48:20.220Z,11.13
2018-03-22T12:50:47.982Z,11.93
2018-03-22T12:53:15.531Z,11.57
2018-03-22T12:55:43.127Z,12.13
2018-03-22T12:58:10.683Z,9.93
2018-03-22T13:00:39.762Z,13.93
2018-03-22T13:03:07.370Z,13.93
2018-03-22T13:05:35.723Z,15.13
2018-03-22T13:08:04.168Z,14.70
2018-03-22T13:10:31.685Z,15.10
2018-03-22T13:12:59.217Z,14.33
2018-03-22T13:15:27.495Z,15.10
2018-03-22T13:17:54.972Z,13.17
2018-03-22T13:20:22.467Z,15.00
2018-03-22T13:22:49.939Z,13.57
2018-03-22T13:25:17.499Z,13.80
2018-03-22T13:27:44.966Z,12.80
2018-03-22T13:30:13.228Z,15.17
2018-03-22T13:32:40.719Z,15.03
2018-03-22T13:35:08.218Z,17.33
2018-03-22T13:37:35.695Z,16.47
2018-03-22T13:40:03.187Z,21.80
2018-03-22T13:42:30.710Z,21.40
2018-03-22T13:44:58.192Z,20.03
2018-03-22T13:47:25.687Z,20.93
2018-03-22T13:49:53.163Z,19.40
2018-03-22T13:52:20.658Z,22.30
2018-03-22T13:54:48.135Z,19.13
2018-03-22T13:57:15.628Z,19.33
2018-03-22T13:59:43.914Z,18.63
2018-03-22T14:02:11.391Z,21.47
2018-03-22T14:04:38.904Z,18.13
2018-03-22T14:07:07.497Z,19.80
2018-03-22T14:09:35.758Z,17.23
2018-03-22T14:12:03.998Z,16.60
2018-03-22T14:14:31.507Z,17.83
2018-03-22T14:16:58.984Z,15.83
2018-03-22T14:19:26.471Z,12.50
2018-03-22T14:21:53.954Z,13.07
2018-03-22T14:24:21.439Z,12.33
2018-03-22T14:26:48.911Z,13.47
2018-03-22T14:29:16.415Z,13.90
2018-03-22T14:31:43.883Z,14.90
2018-03-22T14:34:11.372Z,14.40
2018-03-22T14:36:38.875Z,18.50
2018-03-22T14:39:06.387Z,19.33
2018-03-22T14:41:33.877Z,22.83
2018-03-22T14:44:01.371Z,24.23
2018-03-22T14:46:28.899Z,25.23
2018-03-22T14:48:56.382Z,29.00
2018-03-22T14:51:23.876Z,32.53
2018-03-22T14:53:51.367Z,25.90
2018-03-22T14:56:22.150Z,24.73
2018-03-22T14:58:49.679Z,27.30
2018-03-22T15:01:17.166Z,28.57
2018-03-22T15:03:44.642Z,24.73
2018-03-22T15:06:12.899Z,22.93
2018-03-22T15:08:40.381Z,20.70
2018-03-22T15:11:07.875Z,19.43
2018-03-22T15:13:36.111Z,22.67
2018-03-22T15:16:03.607Z,23.93
2018-03-22T15:18:31.143Z,26.13
2018-03-22T15:20:59.408Z,26.10
2018-03-22T15:23:26.891Z,34.63
2018-03-22T15:25:54.430Z,34.57
2018-03-22T15:28:22.393Z,31.40
2018-03-22T15:30:50.610Z,26.23
2018-03-22T15:33:18.104Z,27.13
2018-03-22T15:35:45.579Z,24.23
2018-03-22T15:38:13.067Z,24.60
2018-03-22T15:40:40.535Z,21.17
2018-03-22T15:43:09.426Z,23.97
2018-03-22T15:45:37.666Z,26.97
2018-03-22T15:48:05.155Z,24.23
2018-03-22T15:50:33.399Z,26.13
2018-03-22T15:53:00.891Z,25.77
2018-03-22T15:55:29.131Z,25.53
2018-03-22T15:57:56.619Z,26.47
2018-03-22T16:00:24.855Z,29.13
2018-03-22T16:02:52.347Z,24.23
2018-03-22T16:05:19.831Z,29.50
2018-03-22T16:07:47.333Z,29.80
2018-03-22T16:10:14.811Z,26.03
2018-03-22T16:12:42.283Z,31.00
2018-03-22T16:15:10.540Z,30.57
2018-03-22T16:17:38.783Z,30.33
2018-03-22T16:20:06.271Z,29.50
2018-03-22T16:22:34.511Z,32.50
2018-03-22T16:25:01.999Z,29.53
2018-03-22T16:27:30.246Z,33.97
2018-03-22T16:29:57.768Z,36.90
2018-03-22T16:32:25.259Z,30.40
2018-03-22T16:34:52.747Z,34.60
2018-03-22T16:37:20.991Z,34.37
2018-03-22T16:39:48.482Z,40.33
2018-03-22T16:42:16.738Z,34.90
2018-03-22T16:44:44.226Z,38.50
2018-03-22T16:47:11.728Z,38.10
2018-03-22T16:49:39.341Z,41.17
2018-03-22T16:52:06.751Z,35.80
2018-03-22T16:54:34.228Z,43.00
2018-03-22T16:57:01.727Z,44.63
2018-03-22T16:59:29.204Z,33.60
2018-03-22T17:01:56.699Z,42.83
2018-03-22T17:04:24.176Z,38.80
2018-03-22T17:06:52.436Z,42.40
2018-03-22T17:09:19.911Z,38.90
2018-03-22T17:11:48.167Z,42.33
2018-03-22T17:14:15.647Z,44.83
2018-03-22T17:16:43.143Z,42.30
2018-03-22T17:19:10.614Z,46.07
2018-03-22T17:21:38.119Z,44.57
2018-03-22T17:24:05.602Z,48.97
2018-03-22T17:26:33.122Z,45.97
2018-03-22T17:29:00.599Z,44.00
2018-03-22T17:31:28.911Z,44.83
2018-03-22T17:33:56.387Z,39.17
2018-03-22T17:36:23.896Z,40.03
2018-03-22T17:38:52.159Z,42.53
2018-03-22T17:41:19.639Z,39.47
2018-03-22T17:43:47.903Z,41.27
2018-03-22T17:46:15.374Z,44.03
2018-03-22T17:48:43.677Z,41.80
2018-03-22T17:51:11.244Z,41.43
2018-03-22T17:53:38.754Z,49.60
2018-03-22T17:56:06.231Z,41.53
2018-03-22T17:58:34.491Z,51.63
2018-03-22T18:01:01.976Z,46.03
2018-03-22T18:03:29.475Z,45.20
2018-03-22T18:05:56.946Z,48.87
2018-03-22T18:08:24.456Z,47.70
2018-03-22T18:10:51.927Z,56.80
2018-03-22T18:13:19.410Z,53.27
2018-03-22T18:15:48.402Z,56.53
2018-03-22T18:18:15.886Z,54.27
2018-03-22T18:20:44.151Z,52.90
2018-03-22T18:23:12.396Z,60.27
2018-03-22T18:25:39.891Z,54.20
2018-03-22T18:28:08.141Z,55.57
2018-03-22T18:30:35.636Z,50.07
2018-03-22T18:33:03.144Z,61.13
2018-03-22T18:35:30.667Z,63.27
2018-03-22T18:37:58.144Z,61.17
2018-03-22T18:40:25.652Z,61.23
2018-03-22T18:42:53.143Z,59.23
2018-03-22T18:45:20.635Z,53.57
2018-03-22T18:47:48.114Z,65.03
2018-03-22T18:50:16.380Z,56.27
2018-03-22T18:52:43.871Z,64.30
2018-03-22T18:55:11.371Z,57.97
2018-03-22T18:57:38.855Z,50.73
2018-03-22T19:00:06.340Z,54.77
2018-03-22T19:02:33.844Z,61.33
2018-03-22T19:05:01.323Z,50.73
2018-03-22T19:07:28.815Z,47.67
2018-03-22T19:09:56.378Z,53.17
2018-03-22T19:12:24.644Z,49.77
2018-03-22T19:14:52.146Z,55.80
2018-03-22T19:17:19.670Z,52.67
2018-03-22T19:19:47.968Z,52.77
2018-03-22T19:22:15.516Z,49.23
2018-03-22T19:24:43.103Z,53.93
2018-03-22T19:27:11.396Z,56.10
2018-03-22T19:29:38.960Z,58.17
2018-03-22T19:32:06.578Z,58.73
2018-03-22T19:34:34.233Z,60.17
2018-03-22T19:37:02.160Z,51.13
2018-03-22T19:39:30.811Z,51.90
2018-03-22T19:41:58.691Z,56.07
2018-03-22T19:44:26.707Z,59.10
2018-03-22T19:46:54.539Z,58.43
2018-03-22T19:49:22.404Z,58.37
2018-03-22T19:51:50.448Z,53.07
2018-03-22T19:54:19.411Z,61.93
2018-03-22T19:56:47.989Z,62.97
2018-03-22T19:59:16.084Z,56.10
2018-03-22T20:01:45.010Z,65.97
2018-03-22T20:04:12.964Z,61.47
2018-03-22T20:06:41.632Z,59.10
2018-03-22T20:09:10.216Z,61.73
2018-03-22T20:11:38.182Z,64.60
2018-03-22T20:14:06.764Z,57.97
2018-03-22T20:16:34.529Z,63.30
2018-03-22T20:19:02.494Z,65.73
2018-03-22T20:21:30.460Z,65.67
2018-03-22T20:23:58.531Z,53.20
2018-03-22T20:26:26.397Z,65.97
2018-03-22T20:28:54.369Z,60.07
2018-03-22T20:31:22.912Z,64.80
2018-03-22T20:33:50.916Z,68.70
2018-03-22T20:36:19.703Z,64.13
2018-03-22T20:38:47.669Z,62.13
2018-03-22T20:41:16.501Z,63.50
2018-03-22T20:43:44.523Z,61.07
2018-03-22T20:46:12.388Z,70.97
2018-03-22T20:48:40.560Z,58.50
2018-03-22T20:51:09.398Z,54.93
2018-03-22T20:53:37.212Z,63.17
2018-03-22T20:56:05.077Z,60.77
2018-03-22T20:58:32.839Z,55.53
2018-03-22T21:01:01.116Z,54.43
2018-03-22T21:03:28.877Z,46.23
2018-03-22T21:05:56.743Z,58.27
2018-03-22T21:08:24.347Z,55.50
2018-03-22T21:10:52.807Z,48.93
2018-03-22T21:13:20.380Z,47.83
2018-03-22T21:15:47.974Z,49.30
2018-03-22T21:18:15.534Z,47.37
2018-03-22T21:20:43.059Z,54.77
2018-03-22T21:23:10.640Z,49.03
2018-03-22T21:25:38.179Z,44.73
2018-03-22T21:28:06.451Z,53.30
2018-03-22T21:30:33.924Z,54.93
2018-03-22T21:33:02.198Z,53.77
2018-03-22T21:35:30.444Z,52.07
2018-03-22T21:37:57.936Z,47.37
2018-03-22T21:40:26.179Z,49.67
2018-03-22T21:42:53.692Z,50.63
2018-03-22T21:45:21.173Z,57.63
2018-03-22T21:47:49.351Z,54.17
2018-03-22T21:50:16.857Z,55.00
2018-03-22T21:52:45.987Z,52.87
2018-03-22T21:55:13.490Z,52.60
2018-03-22T21:57:40.964Z,57.90
2018-03-22T22:00:09.226Z,56.70
2018-03-22T22:02:37.462Z,57.20
2018-03-22T22:05:04.957Z,49.83
2018-03-22T22:07:33.209Z,53.23
2018-03-22T22:10:00.707Z,55.17
2018-03-22T22:12:28.183Z,55.20
2018-03-22T22:14:55.672Z,58.83
2018-03-22T22:17:23.152Z,55.63
2018-03-22T22:19:51.415Z,63.47
2018-03-22T22:22:18.895Z,62.10
2018-03-22T22:24:47.162Z,67.37
2018-03-22T22:27:15.419Z,66.80
2018-03-22T22:29:42.915Z,67.83
2018-03-22T22:32:10.394Z,78.77
2018-03-22T22:34:37.867Z,75.13
2018-03-22T22:37:05.499Z,71.77
2018-03-22T22:39:32.975Z,76.17
2018-03-22T22:42:00.470Z,75.23
2018-03-22T22:44:28.728Z,73.37
2018-03-22T22:46:56.219Z,81.63
2018-03-22T22:49:24.459Z,83.17
2018-03-22T22:51:51.958Z,82.57
2018-03-22T22:54:19.439Z,79.37
2018-03-22T22:56:46.942Z,76.30
2018-03-22T22:59:15.187Z,73.90
2018-03-22T23:01:42.679Z,77.20
2018-03-22T23:04:10.177Z,85.37
2018-03-22T23:06:37.671Z,76.43
2018-03-22T23:09:05.147Z,83.23
2018-03-22T23:11:33.403Z,74.60
2018-03-22T23:14:00.879Z,72.13
2018-03-22T23:16:29.135Z,75.70
2018-03-22T23:18:56.615Z,71.20
2018-03-22T23:21:24.878Z,87.80
2018-03-22T23:23:53.119Z,82.00
2018-03-22T23:26:20.616Z,80.97
2018-03-22T23:28:48.858Z,72.63
2018-03-22T23:31:16.342Z,81.57
2018-03-22T23:33:44.583Z,80.40
2018-03-22T23:36:12.050Z,72.17
2018-03-22T23:38:39.543Z,66.93
2018-03-22T23:41:07.775Z,62.03
2018-03-22T23:43:35.262Z,52.63
2018-03-22T23:46:03.517Z,56.00
2018-03-22T23:48:31.006Z,54.33
2018-03-22T23:50:58.474Z,66.87
2018-03-22T23:53:25.970Z,64.23
2018-03-22T23:55:53.454Z,68.03
2018-03-22T23:58:21.690Z,57.47
